Terminal Aerodrome Forecast
Issued by NWS

Home | Current Version | Previous Version | Text Only | Print | Product List | Glossary Off
Versions: 1 2 3 4 5 6 7 8 9 10 11 12 13 14 15 16 17

000
FTUS43 KICT 151357 AAB
TAFCNU
TAF AMD
KCNU 151357Z 1514/1612 22017KT P6SM OVC015
     FM151800 26017G22KT P6SM OVC015
     FM152000 29022G30KT P6SM OVC025
     FM160000 29017G22KT P6SM BKN040=

USA.gov is the U.S. government's official web portal to all federal, state and local government web resources and services.